sensor_id;sensor_type;location;lat;lon;timestamp;P1;durP1;ratioP1;P2;durP2;ratioP2
15833;SDS011;8017;50.812;4.934;2022-12-24T00:02:58;27.77;;;4.97;;
15833;SDS011;8017;50.812;4.934;2022-12-24T00:06:02;27.93;;;6.03;;
15833;SDS011;8017;50.812;4.934;2022-12-24T00:09:06;26.83;;;5.17;;
15833;SDS011;8017;50.812;4.934;2022-12-24T00:12:08;28.13;;;5.70;;
15833;SDS011;8017;50.812;4.934;2022-12-24T00:15:10;23.90;;;5.47;;
15833;SDS011;8017;50.812;4.934;2022-12-24T00:18:12;24.57;;;5.63;;
15833;SDS011;8017;50.812;4.934;2022-12-24T00:21:14;28.90;;;5.30;;
15833;SDS011;8017;50.812;4.934;2022-12-24T00:24:17;17.90;;;5.10;;
15833;SDS011;8017;50.812;4.934;2022-12-24T00:27:19;25.20;;;5.80;;
15833;SDS011;8017;50.812;4.934;2022-12-24T00:30:21;30.47;;;5.80;;
15833;SDS011;8017;50.812;4.934;2022-12-24T00:33:23;30.73;;;6.13;;
15833;SDS011;8017;50.812;4.934;2022-12-24T00:36:25;27.23;;;5.37;;
15833;SDS011;8017;50.812;4.934;2022-12-24T00:39:28;30.67;;;5.83;;
15833;SDS011;8017;50.812;4.934;2022-12-24T00:42:30;30.37;;;5.80;;
15833;SDS011;8017;50.812;4.934;2022-12-24T00:45:32;27.17;;;5.43;;
15833;SDS011;8017;50.812;4.934;2022-12-24T00:48:34;29.17;;;5.47;;
15833;SDS011;8017;50.812;4.934;2022-12-24T00:51:36;25.53;;;5.33;;
15833;SDS011;8017;50.812;4.934;2022-12-24T00:54:39;30.10;;;6.00;;
15833;SDS011;8017;50.812;4.934;2022-12-24T00:57:41;28.97;;;6.13;;
15833;SDS011;8017;50.812;4.934;2022-12-24T01:00:43;21.43;;;5.23;;
15833;SDS011;8017;50.812;4.934;2022-12-24T01:03:45;25.00;;;5.53;;
15833;SDS011;8017;50.812;4.934;2022-12-24T01:06:47;31.70;;;5.50;;
15833;SDS011;8017;50.812;4.934;2022-12-24T01:09:49;30.90;;;6.47;;
15833;SDS011;8017;50.812;4.934;2022-12-24T01:12:51;24.77;;;5.47;;
15833;SDS011;8017;50.812;4.934;2022-12-24T01:15:53;32.47;;;6.40;;
15833;SDS011;8017;50.812;4.934;2022-12-24T01:18:55;24.93;;;5.77;;
15833;SDS011;8017;50.812;4.934;2022-12-24T01:21:57;24.43;;;6.07;;
15833;SDS011;8017;50.812;4.934;2022-12-24T01:25:00;24.87;;;6.57;;
15833;SDS011;8017;50.812;4.934;2022-12-24T01:28:02;35.33;;;6.07;;
15833;SDS011;8017;50.812;4.934;2022-12-24T01:31:08;27.70;;;5.90;;
15833;SDS011;8017;50.812;4.934;2022-12-24T01:34:12;30.90;;;6.40;;
15833;SDS011;8017;50.812;4.934;2022-12-24T01:37:13;32.30;;;6.20;;
15833;SDS011;8017;50.812;4.934;2022-12-24T01:40:17;29.87;;;6.50;;
15833;SDS011;8017;50.812;4.934;2022-12-24T01:43:36;28.23;;;5.90;;
15833;SDS011;8017;50.812;4.934;2022-12-24T01:46:38;24.87;;;5.57;;
15833;SDS011;8017;50.812;4.934;2022-12-24T01:49:41;23.63;;;4.93;;
15833;SDS011;8017;50.812;4.934;2022-12-24T01:52:45;23.93;;;4.93;;
15833;SDS011;8017;50.812;4.934;2022-12-24T01:55:49;21.03;;;4.70;;
15833;SDS011;8017;50.812;4.934;2022-12-24T01:58:53;31.37;;;5.90;;
15833;SDS011;8017;50.812;4.934;2022-12-24T02:01:58;32.83;;;6.17;;
15833;SDS011;8017;50.812;4.934;2022-12-24T02:05:02;25.60;;;6.33;;
15833;SDS011;8017;50.812;4.934;2022-12-24T02:08:08;28.37;;;5.03;;
15833;SDS011;8017;50.812;4.934;2022-12-24T02:11:12;17.57;;;4.43;;
15833;SDS011;8017;50.812;4.934;2022-12-24T02:14:16;23.00;;;4.03;;
15833;SDS011;8017;50.812;4.934;2022-12-24T02:17:20;15.97;;;3.53;;
15833;SDS011;8017;50.812;4.934;2022-12-24T02:20:34;25.93;;;4.50;;
15833;SDS011;8017;50.812;4.934;2022-12-24T02:27:35;21.33;;;3.87;;
15833;SDS011;8017;50.812;4.934;2022-12-24T02:30:46;18.10;;;3.70;;
15833;SDS011;8017;50.812;4.934;2022-12-24T02:33:53;13.73;;;3.10;;
15833;SDS011;8017;50.812;4.934;2022-12-24T02:37:04;12.37;;;3.03;;
15833;SDS011;8017;50.812;4.934;2022-12-24T02:40:12;15.33;;;3.83;;
15833;SDS011;8017;50.812;4.934;2022-12-24T02:43:18;30.27;;;6.23;;
15833;SDS011;8017;50.812;4.934;2022-12-24T02:46:25;27.50;;;5.97;;
15833;SDS011;8017;50.812;4.934;2022-12-24T02:49:29;26.77;;;6.57;;
15833;SDS011;8017;50.812;4.934;2022-12-24T02:52:32;28.80;;;5.87;;
15833;SDS011;8017;50.812;4.934;2022-12-24T02:55:36;33.83;;;7.20;;
15833;SDS011;8017;50.812;4.934;2022-12-24T02:58:48;28.90;;;6.20;;
15833;SDS011;8017;50.812;4.934;2022-12-24T03:02:08;22.97;;;5.20;;
15833;SDS011;8017;50.812;4.934;2022-12-24T03:05:23;19.40;;;5.80;;
15833;SDS011;8017;50.812;4.934;2022-12-24T03:08:35;30.00;;;5.63;;
15833;SDS011;8017;50.812;4.934;2022-12-24T03:11:45;27.43;;;5.73;;
15833;SDS011;8017;50.812;4.934;2022-12-24T03:14:53;24.50;;;5.50;;
15833;SDS011;8017;50.812;4.934;2022-12-24T03:17:57;25.57;;;5.53;;
15833;SDS011;8017;50.812;4.934;2022-12-24T03:21:02;23.27;;;5.37;;
15833;SDS011;8017;50.812;4.934;2022-12-24T03:24:10;21.27;;;5.50;;
15833;SDS011;8017;50.812;4.934;2022-12-24T03:27:12;24.20;;;6.23;;
15833;SDS011;8017;50.812;4.934;2022-12-24T03:30:15;21.27;;;5.10;;
15833;SDS011;8017;50.812;4.934;2022-12-24T03:33:19;27.33;;;6.03;;
15833;SDS011;8017;50.812;4.934;2022-12-24T03:36:21;28.77;;;6.13;;
15833;SDS011;8017;50.812;4.934;2022-12-24T03:39:24;31.17;;;7.07;;
15833;SDS011;8017;50.812;4.934;2022-12-24T03:42:26;26.20;;;6.40;;
15833;SDS011;8017;50.812;4.934;2022-12-24T03:45:28;28.53;;;5.77;;
15833;SDS011;8017;50.812;4.934;2022-12-24T03:48:33;30.57;;;6.83;;
15833;SDS011;8017;50.812;4.934;2022-12-24T03:51:35;32.83;;;6.40;;
15833;SDS011;8017;50.812;4.934;2022-12-24T03:54:37;30.00;;;6.37;;
15833;SDS011;8017;50.812;4.934;2022-12-24T03:57:39;31.70;;;6.80;;
15833;SDS011;8017;50.812;4.934;2022-12-24T04:00:41;32.53;;;6.73;;
15833;SDS011;8017;50.812;4.934;2022-12-24T04:03:44;27.30;;;6.70;;
15833;SDS011;8017;50.812;4.934;2022-12-24T04:06:46;31.53;;;6.90;;
15833;SDS011;8017;50.812;4.934;2022-12-24T04:09:48;31.50;;;6.73;;
15833;SDS011;8017;50.812;4.934;2022-12-24T04:12:50;34.70;;;6.90;;
15833;SDS011;8017;50.812;4.934;2022-12-24T04:15:55;30.50;;;6.93;;
15833;SDS011;8017;50.812;4.934;2022-12-24T04:18:59;32.37;;;6.73;;
15833;SDS011;8017;50.812;4.934;2022-12-24T04:22:01;36.13;;;7.23;;
15833;SDS011;8017;50.812;4.934;2022-12-24T04:25:03;29.70;;;6.53;;
15833;SDS011;8017;50.812;4.934;2022-12-24T04:28:06;30.03;;;6.20;;
15833;SDS011;8017;50.812;4.934;2022-12-24T04:31:09;32.37;;;6.87;;
15833;SDS011;8017;50.812;4.934;2022-12-24T04:34:14;34.03;;;6.80;;
15833;SDS011;8017;50.812;4.934;2022-12-24T04:37:16;33.03;;;7.00;;
15833;SDS011;8017;50.812;4.934;2022-12-24T04:40:17;25.53;;;6.47;;
15833;SDS011;8017;50.812;4.934;2022-12-24T04:43:19;35.23;;;6.93;;
15833;SDS011;8017;50.812;4.934;2022-12-24T04:46:22;29.93;;;5.83;;
15833;SDS011;8017;50.812;4.934;2022-12-24T04:49:27;30.43;;;6.97;;
15833;SDS011;8017;50.812;4.934;2022-12-24T04:52:29;33.97;;;6.07;;
15833;SDS011;8017;50.812;4.934;2022-12-24T04:55:30;25.33;;;5.90;;
15833;SDS011;8017;50.812;4.934;2022-12-24T04:58:33;25.77;;;6.33;;
15833;SDS011;8017;50.812;4.934;2022-12-24T05:01:35;38.67;;;7.23;;
15833;SDS011;8017;50.812;4.934;2022-12-24T05:04:38;33.23;;;6.30;;
15833;SDS011;8017;50.812;4.934;2022-12-24T05:07:40;38.47;;;6.57;;
15833;SDS011;8017;50.812;4.934;2022-12-24T05:10:42;31.70;;;6.60;;
15833;SDS011;8017;50.812;4.934;2022-12-24T05:13:45;33.13;;;6.20;;
15833;SDS011;8017;50.812;4.934;2022-12-24T05:16:47;32.87;;;6.77;;
15833;SDS011;8017;50.812;4.934;2022-12-24T05:19:50;36.60;;;7.13;;
15833;SDS011;8017;50.812;4.934;2022-12-24T05:22:52;33.17;;;6.93;;
15833;SDS011;8017;50.812;4.934;2022-12-24T05:26:13;27.50;;;7.93;;
15833;SDS011;8017;50.812;4.934;2022-12-24T05:29:23;41.47;;;6.40;;
15833;SDS011;8017;50.812;4.934;2022-12-24T05:32:25;30.50;;;7.23;;
15833;SDS011;8017;50.812;4.934;2022-12-24T05:35:29;27.57;;;6.30;;
15833;SDS011;8017;50.812;4.934;2022-12-24T05:38:31;28.00;;;6.80;;
15833;SDS011;8017;50.812;4.934;2022-12-24T05:41:32;29.90;;;6.97;;
15833;SDS011;8017;50.812;4.934;2022-12-24T05:44:34;41.73;;;8.40;;
15833;SDS011;8017;50.812;4.934;2022-12-24T05:47:36;28.43;;;6.57;;
15833;SDS011;8017;50.812;4.934;2022-12-24T05:50:40;35.60;;;7.47;;
15833;SDS011;8017;50.812;4.934;2022-12-24T05:53:41;34.50;;;6.47;;
15833;SDS011;8017;50.812;4.934;2022-12-24T05:56:43;26.83;;;6.33;;
15833;SDS011;8017;50.812;4.934;2022-12-24T05:59:45;32.83;;;6.77;;
15833;SDS011;8017;50.812;4.934;2022-12-24T06:02:48;31.37;;;6.53;;
15833;SDS011;8017;50.812;4.934;2022-12-24T06:05:57;30.20;;;7.00;;
15833;SDS011;8017;50.812;4.934;2022-12-24T06:09:00;27.60;;;6.80;;
15833;SDS011;8017;50.812;4.934;2022-12-24T06:12:02;35.47;;;6.60;;
15833;SDS011;8017;50.812;4.934;2022-12-24T06:15:05;26.80;;;6.30;;
15833;SDS011;8017;50.812;4.934;2022-12-24T06:18:07;31.43;;;6.70;;
15833;SDS011;8017;50.812;4.934;2022-12-24T06:21:11;25.83;;;6.53;;
15833;SDS011;8017;50.812;4.934;2022-12-24T06:24:13;31.67;;;6.77;;
15833;SDS011;8017;50.812;4.934;2022-12-24T06:27:15;32.33;;;6.77;;
15833;SDS011;8017;50.812;4.934;2022-12-24T06:30:18;27.87;;;6.80;;
15833;SDS011;8017;50.812;4.934;2022-12-24T06:33:20;29.20;;;7.13;;
15833;SDS011;8017;50.812;4.934;2022-12-24T06:36:23;37.33;;;6.93;;
15833;SDS011;8017;50.812;4.934;2022-12-24T06:39:26;27.07;;;6.00;;
15833;SDS011;8017;50.812;4.934;2022-12-24T06:42:27;31.43;;;5.80;;
15833;SDS011;8017;50.812;4.934;2022-12-24T06:45:29;28.73;;;6.17;;
15833;SDS011;8017;50.812;4.934;2022-12-24T06:48:32;30.13;;;6.63;;
15833;SDS011;8017;50.812;4.934;2022-12-24T06:51:35;32.23;;;7.63;;
15833;SDS011;8017;50.812;4.934;2022-12-24T06:54:37;40.20;;;6.80;;
15833;SDS011;8017;50.812;4.934;2022-12-24T06:57:39;31.40;;;6.47;;
15833;SDS011;8017;50.812;4.934;2022-12-24T07:00:41;27.03;;;7.60;;
15833;SDS011;8017;50.812;4.934;2022-12-24T07:03:43;24.90;;;6.60;;
15833;SDS011;8017;50.812;4.934;2022-12-24T07:06:46;40.27;;;6.77;;
15833;SDS011;8017;50.812;4.934;2022-12-24T07:09:48;32.33;;;7.47;;
15833;SDS011;8017;50.812;4.934;2022-12-24T07:12:50;34.57;;;7.07;;
15833;SDS011;8017;50.812;4.934;2022-12-24T07:15:55;36.13;;;7.30;;
15833;SDS011;8017;50.812;4.934;2022-12-24T07:18:57;30.77;;;6.50;;
15833;SDS011;8017;50.812;4.934;2022-12-24T07:22:01;29.97;;;6.17;;
15833;SDS011;8017;50.812;4.934;2022-12-24T07:25:03;31.97;;;6.30;;
15833;SDS011;8017;50.812;4.934;2022-12-24T07:28:05;29.97;;;6.60;;
15833;SDS011;8017;50.812;4.934;2022-12-24T07:31:07;32.03;;;7.13;;
15833;SDS011;8017;50.812;4.934;2022-12-24T07:34:09;30.37;;;6.90;;
15833;SDS011;8017;50.812;4.934;2022-12-24T07:37:12;33.60;;;7.40;;
15833;SDS011;8017;50.812;4.934;2022-12-24T07:40:14;33.53;;;6.83;;
15833;SDS011;8017;50.812;4.934;2022-12-24T07:43:16;36.17;;;8.00;;
15833;SDS011;8017;50.812;4.934;2022-12-24T07:46:18;31.27;;;6.53;;
15833;SDS011;8017;50.812;4.934;2022-12-24T07:49:20;29.73;;;6.60;;
15833;SDS011;8017;50.812;4.934;2022-12-24T07:52:23;34.60;;;6.77;;
15833;SDS011;8017;50.812;4.934;2022-12-24T07:55:25;33.07;;;6.30;;
15833;SDS011;8017;50.812;4.934;2022-12-24T07:58:27;30.80;;;6.40;;
15833;SDS011;8017;50.812;4.934;2022-12-24T08:01:29;27.80;;;6.40;;
15833;SDS011;8017;50.812;4.934;2022-12-24T08:04:31;30.63;;;6.17;;
15833;SDS011;8017;50.812;4.934;2022-12-24T08:07:36;33.50;;;7.20;;
15833;SDS011;8017;50.812;4.934;2022-12-24T08:10:38;36.87;;;7.47;;
15833;SDS011;8017;50.812;4.934;2022-12-24T08:13:41;35.80;;;7.73;;
15833;SDS011;8017;50.812;4.934;2022-12-24T08:16:43;33.60;;;7.63;;
15833;SDS011;8017;50.812;4.934;2022-12-24T08:19:45;29.27;;;6.73;;
15833;SDS011;8017;50.812;4.934;2022-12-24T08:22:48;39.53;;;6.93;;
15833;SDS011;8017;50.812;4.934;2022-12-24T08:25:50;28.07;;;6.50;;
15833;SDS011;8017;50.812;4.934;2022-12-24T08:28:52;35.07;;;7.10;;
15833;SDS011;8017;50.812;4.934;2022-12-24T08:31:54;34.33;;;6.97;;
15833;SDS011;8017;50.812;4.934;2022-12-24T08:34:56;31.17;;;6.93;;
15833;SDS011;8017;50.812;4.934;2022-12-24T08:38:00;33.83;;;7.23;;
15833;SDS011;8017;50.812;4.934;2022-12-24T08:41:02;33.57;;;7.83;;
15833;SDS011;8017;50.812;4.934;2022-12-24T08:44:04;36.50;;;7.07;;
15833;SDS011;8017;50.812;4.934;2022-12-24T08:47:06;34.97;;;7.37;;
15833;SDS011;8017;50.812;4.934;2022-12-24T08:50:08;25.20;;;7.50;;
15833;SDS011;8017;50.812;4.934;2022-12-24T08:53:12;33.13;;;6.87;;
15833;SDS011;8017;50.812;4.934;2022-12-24T08:56:14;34.63;;;6.87;;
15833;SDS011;8017;50.812;4.934;2022-12-24T08:59:18;37.10;;;7.07;;
15833;SDS011;8017;50.812;4.934;2022-12-24T09:02:20;29.53;;;6.57;;
15833;SDS011;8017;50.812;4.934;2022-12-24T09:05:22;34.00;;;7.17;;
15833;SDS011;8017;50.812;4.934;2022-12-24T09:08:26;27.03;;;7.10;;
15833;SDS011;8017;50.812;4.934;2022-12-24T09:11:28;32.37;;;7.20;;
15833;SDS011;8017;50.812;4.934;2022-12-24T09:14:30;26.83;;;6.83;;
15833;SDS011;8017;50.812;4.934;2022-12-24T09:17:32;38.63;;;7.17;;
15833;SDS011;8017;50.812;4.934;2022-12-24T09:20:34;30.27;;;6.90;;
15833;SDS011;8017;50.812;4.934;2022-12-24T09:23:38;34.43;;;7.07;;
15833;SDS011;8017;50.812;4.934;2022-12-24T09:26:40;31.67;;;7.70;;
15833;SDS011;8017;50.812;4.934;2022-12-24T09:29:42;33.37;;;7.27;;
15833;SDS011;8017;50.812;4.934;2022-12-24T09:32:44;31.47;;;6.83;;
15833;SDS011;8017;50.812;4.934;2022-12-24T09:35:46;30.93;;;6.70;;
15833;SDS011;8017;50.812;4.934;2022-12-24T09:38:52;30.97;;;7.53;;
15833;SDS011;8017;50.812;4.934;2022-12-24T09:41:56;26.63;;;7.13;;
15833;SDS011;8017;50.812;4.934;2022-12-24T09:45:07;32.33;;;6.50;;
15833;SDS011;8017;50.812;4.934;2022-12-24T09:48:17;38.10;;;7.40;;
15833;SDS011;8017;50.812;4.934;2022-12-24T09:51:24;32.17;;;6.70;;
15833;SDS011;8017;50.812;4.934;2022-12-24T09:54:33;28.13;;;7.13;;
15833;SDS011;8017;50.812;4.934;2022-12-24T09:57:38;30.53;;;7.70;;
15833;SDS011;8017;50.812;4.934;2022-12-24T10:00:42;36.03;;;6.93;;
15833;SDS011;8017;50.812;4.934;2022-12-24T10:03:44;31.60;;;7.00;;
15833;SDS011;8017;50.812;4.934;2022-12-24T10:06:48;28.90;;;7.27;;
15833;SDS011;8017;50.812;4.934;2022-12-24T10:09:58;28.30;;;7.03;;
15833;SDS011;8017;50.812;4.934;2022-12-24T10:13:08;33.20;;;7.40;;
15833;SDS011;8017;50.812;4.934;2022-12-24T10:16:20;30.50;;;6.37;;
15833;SDS011;8017;50.812;4.934;2022-12-24T10:19:30;34.63;;;7.07;;
15833;SDS011;8017;50.812;4.934;2022-12-24T10:22:43;31.40;;;6.97;;
15833;SDS011;8017;50.812;4.934;2022-12-24T10:25:55;29.20;;;6.67;;
15833;SDS011;8017;50.812;4.934;2022-12-24T10:29:09;26.17;;;6.00;;
15833;SDS011;8017;50.812;4.934;2022-12-24T10:32:15;32.03;;;7.10;;
15833;SDS011;8017;50.812;4.934;2022-12-24T10:35:22;27.93;;;6.80;;
15833;SDS011;8017;50.812;4.934;2022-12-24T10:38:27;31.90;;;7.00;;
15833;SDS011;8017;50.812;4.934;2022-12-24T10:41:32;29.07;;;6.30;;
15833;SDS011;8017;50.812;4.934;2022-12-24T10:44:36;21.90;;;5.67;;
15833;SDS011;8017;50.812;4.934;2022-12-24T10:47:38;32.03;;;6.70;;
15833;SDS011;8017;50.812;4.934;2022-12-24T10:50:45;27.60;;;6.13;;
15833;SDS011;8017;50.812;4.934;2022-12-24T10:53:55;29.63;;;6.60;;
15833;SDS011;8017;50.812;4.934;2022-12-24T10:57:02;32.60;;;6.57;;
15833;SDS011;8017;50.812;4.934;2022-12-24T11:00:06;28.33;;;6.77;;
15833;SDS011;8017;50.812;4.934;2022-12-24T11:03:20;22.30;;;5.70;;
15833;SDS011;8017;50.812;4.934;2022-12-24T11:06:24;25.43;;;6.57;;
15833;SDS011;8017;50.812;4.934;2022-12-24T11:09:27;27.07;;;5.97;;
15833;SDS011;8017;50.812;4.934;2022-12-24T11:12:32;25.00;;;6.00;;
15833;SDS011;8017;50.812;4.934;2022-12-24T11:15:37;31.07;;;6.57;;
15833;SDS011;8017;50.812;4.934;2022-12-24T11:18:43;29.13;;;6.37;;
15833;SDS011;8017;50.812;4.934;2022-12-24T11:21:46;23.40;;;6.13;;
15833;SDS011;8017;50.812;4.934;2022-12-24T11:24:55;27.40;;;6.13;;
15833;SDS011;8017;50.812;4.934;2022-12-24T11:28:10;24.83;;;6.13;;
15833;SDS011;8017;50.812;4.934;2022-12-24T11:31:19;30.37;;;6.27;;
15833;SDS011;8017;50.812;4.934;2022-12-24T11:34:27;25.97;;;5.63;;
15833;SDS011;8017;50.812;4.934;2022-12-24T11:37:30;28.50;;;6.47;;
15833;SDS011;8017;50.812;4.934;2022-12-24T11:40:33;26.70;;;6.23;;
15833;SDS011;8017;50.812;4.934;2022-12-24T11:43:40;24.93;;;6.60;;
15833;SDS011;8017;50.812;4.934;2022-12-24T11:46:47;33.73;;;7.37;;
15833;SDS011;8017;50.812;4.934;2022-12-24T11:49:51;27.17;;;7.10;;
15833;SDS011;8017;50.812;4.934;2022-12-24T11:53:03;28.20;;;7.07;;
15833;SDS011;8017;50.812;4.934;2022-12-24T11:56:11;30.60;;;6.30;;
15833;SDS011;8017;50.812;4.934;2022-12-24T11:59:27;25.40;;;6.90;;
15833;SDS011;8017;50.812;4.934;2022-12-24T12:02:33;31.17;;;6.57;;
15833;SDS011;8017;50.812;4.934;2022-12-24T12:05:38;25.63;;;6.40;;
15833;SDS011;8017;50.812;4.934;2022-12-24T12:08:40;27.67;;;6.80;;
15833;SDS011;8017;50.812;4.934;2022-12-24T12:11:43;31.17;;;6.80;;
15833;SDS011;8017;50.812;4.934;2022-12-24T12:14:50;32.40;;;6.60;;
15833;SDS011;8017;50.812;4.934;2022-12-24T12:17:55;26.63;;;5.63;;
15833;SDS011;8017;50.812;4.934;2022-12-24T12:21:05;20.43;;;5.50;;
15833;SDS011;8017;50.812;4.934;2022-12-24T12:24:11;27.50;;;6.53;;
15833;SDS011;8017;50.812;4.934;2022-12-24T12:27:18;29.27;;;6.30;;
15833;SDS011;8017;50.812;4.934;2022-12-24T12:30:28;24.60;;;5.97;;
15833;SDS011;8017;50.812;4.934;2022-12-24T12:33:34;23.90;;;4.93;;
15833;SDS011;8017;50.812;4.934;2022-12-24T12:36:40;23.57;;;5.63;;
15833;SDS011;8017;50.812;4.934;2022-12-24T12:39:46;28.60;;;5.70;;
15833;SDS011;8017;50.812;4.934;2022-12-24T12:42:50;24.23;;;5.77;;
15833;SDS011;8017;50.812;4.934;2022-12-24T12:46:01;24.83;;;5.60;;
15833;SDS011;8017;50.812;4.934;2022-12-24T12:49:13;30.23;;;6.13;;
15833;SDS011;8017;50.812;4.934;2022-12-24T12:52:27;24.40;;;5.43;;
15833;SDS011;8017;50.812;4.934;2022-12-24T12:55:42;22.63;;;5.43;;
15833;SDS011;8017;50.812;4.934;2022-12-24T12:58:56;22.83;;;5.73;;
15833;SDS011;8017;50.812;4.934;2022-12-24T13:02:08;21.63;;;4.83;;
15833;SDS011;8017;50.812;4.934;2022-12-24T13:05:24;24.07;;;6.43;;
15833;SDS011;8017;50.812;4.934;2022-12-24T13:12:17;22.03;;;5.93;;
15833;SDS011;8017;50.812;4.934;2022-12-24T13:15:35;21.10;;;5.77;;
15833;SDS011;8017;50.812;4.934;2022-12-24T13:19:02;28.33;;;6.30;;
15833;SDS011;8017;50.812;4.934;2022-12-24T13:22:13;20.87;;;5.50;;
15833;SDS011;8017;50.812;4.934;2022-12-24T13:25:20;23.40;;;5.90;;
15833;SDS011;8017;50.812;4.934;2022-12-24T13:28:32;19.53;;;5.17;;
15833;SDS011;8017;50.812;4.934;2022-12-24T13:31:36;21.90;;;5.30;;
15833;SDS011;8017;50.812;4.934;2022-12-24T13:34:39;29.27;;;6.80;;
15833;SDS011;8017;50.812;4.934;2022-12-24T13:37:49;23.97;;;6.27;;
15833;SDS011;8017;50.812;4.934;2022-12-24T13:40:51;21.97;;;5.37;;
15833;SDS011;8017;50.812;4.934;2022-12-24T13:44:03;25.63;;;5.73;;
15833;SDS011;8017;50.812;4.934;2022-12-24T13:47:20;24.73;;;5.70;;
15833;SDS011;8017;50.812;4.934;2022-12-24T13:50:27;24.97;;;5.77;;
15833;SDS011;8017;50.812;4.934;2022-12-24T13:53:37;19.73;;;6.03;;
15833;SDS011;8017;50.812;4.934;2022-12-24T13:56:42;21.37;;;6.20;;
15833;SDS011;8017;50.812;4.934;2022-12-24T13:59:44;23.93;;;5.53;;
15833;SDS011;8017;50.812;4.934;2022-12-24T14:02:47;25.53;;;7.30;;
15833;SDS011;8017;50.812;4.934;2022-12-24T14:05:55;23.67;;;6.10;;
15833;SDS011;8017;50.812;4.934;2022-12-24T14:09:04;24.13;;;5.70;;
15833;SDS011;8017;50.812;4.934;2022-12-24T14:12:28;28.17;;;5.57;;
15833;SDS011;8017;50.812;4.934;2022-12-24T14:15:44;23.43;;;5.70;;
15833;SDS011;8017;50.812;4.934;2022-12-24T14:19:01;26.03;;;6.00;;
15833;SDS011;8017;50.812;4.934;2022-12-24T14:22:18;23.37;;;6.30;;
15833;SDS011;8017;50.812;4.934;2022-12-24T14:25:27;24.30;;;6.60;;
15833;SDS011;8017;50.812;4.934;2022-12-24T14:28:31;21.20;;;5.67;;
15833;SDS011;8017;50.812;4.934;2022-12-24T14:31:36;17.33;;;5.33;;
15833;SDS011;8017;50.812;4.934;2022-12-24T14:35:03;26.83;;;6.60;;
15833;SDS011;8017;50.812;4.934;2022-12-24T14:38:11;18.03;;;5.33;;
15833;SDS011;8017;50.812;4.934;2022-12-24T14:44:45;19.07;;;5.47;;
15833;SDS011;8017;50.812;4.934;2022-12-24T14:47:53;20.10;;;5.27;;
15833;SDS011;8017;50.812;4.934;2022-12-24T14:51:03;21.67;;;5.80;;
15833;SDS011;8017;50.812;4.934;2022-12-24T14:54:25;28.37;;;5.50;;
15833;SDS011;8017;50.812;4.934;2022-12-24T14:57:38;24.93;;;5.23;;
15833;SDS011;8017;50.812;4.934;2022-12-24T15:00:41;26.07;;;6.10;;
15833;SDS011;8017;50.812;4.934;2022-12-24T15:03:43;27.40;;;6.33;;
15833;SDS011;8017;50.812;4.934;2022-12-24T15:06:45;22.77;;;5.57;;
15833;SDS011;8017;50.812;4.934;2022-12-24T15:09:51;28.47;;;6.33;;
15833;SDS011;8017;50.812;4.934;2022-12-24T15:12:53;24.73;;;6.17;;
15833;SDS011;8017;50.812;4.934;2022-12-24T15:15:57;22.63;;;6.03;;
15833;SDS011;8017;50.812;4.934;2022-12-24T15:19:00;27.90;;;6.20;;
15833;SDS011;8017;50.812;4.934;2022-12-24T15:22:07;25.50;;;6.53;;
15833;SDS011;8017;50.812;4.934;2022-12-24T15:25:21;32.33;;;7.27;;
15833;SDS011;8017;50.812;4.934;2022-12-24T15:28:24;23.07;;;6.73;;
15833;SDS011;8017;50.812;4.934;2022-12-24T15:31:26;29.03;;;6.70;;
15833;SDS011;8017;50.812;4.934;2022-12-24T15:34:37;31.50;;;7.70;;
15833;SDS011;8017;50.812;4.934;2022-12-24T15:37:40;28.20;;;7.67;;
15833;SDS011;8017;50.812;4.934;2022-12-24T15:40:47;34.43;;;8.70;;
15833;SDS011;8017;50.812;4.934;2022-12-24T15:43:49;29.70;;;8.27;;
15833;SDS011;8017;50.812;4.934;2022-12-24T15:46:56;26.63;;;7.90;;
15833;SDS011;8017;50.812;4.934;2022-12-24T15:49:59;26.87;;;8.83;;
15833;SDS011;8017;50.812;4.934;2022-12-24T15:53:01;25.50;;;7.20;;
15833;SDS011;8017;50.812;4.934;2022-12-24T15:56:07;30.30;;;8.03;;
15833;SDS011;8017;50.812;4.934;2022-12-24T15:59:22;36.20;;;8.97;;
15833;SDS011;8017;50.812;4.934;2022-12-24T16:02:34;35.50;;;7.90;;
15833;SDS011;8017;50.812;4.934;2022-12-24T16:05:38;33.33;;;7.90;;
15833;SDS011;8017;50.812;4.934;2022-12-24T16:08:41;28.47;;;9.13;;
15833;SDS011;8017;50.812;4.934;2022-12-24T16:11:45;31.37;;;10.00;;
15833;SDS011;8017;50.812;4.934;2022-12-24T16:14:48;30.03;;;10.67;;
15833;SDS011;8017;50.812;4.934;2022-12-24T16:17:52;31.77;;;10.10;;
15833;SDS011;8017;50.812;4.934;2022-12-24T16:20:54;38.90;;;10.60;;
15833;SDS011;8017;50.812;4.934;2022-12-24T16:24:01;32.10;;;9.83;;
15833;SDS011;8017;50.812;4.934;2022-12-24T16:27:08;38.70;;;12.27;;
15833;SDS011;8017;50.812;4.934;2022-12-24T16:30:13;37.20;;;13.13;;
15833;SDS011;8017;50.812;4.934;2022-12-24T16:33:15;30.83;;;13.20;;
15833;SDS011;8017;50.812;4.934;2022-12-24T16:36:19;36.67;;;14.73;;
15833;SDS011;8017;50.812;4.934;2022-12-24T16:39:22;35.50;;;13.40;;
15833;SDS011;8017;50.812;4.934;2022-12-24T16:42:28;36.70;;;13.47;;
15833;SDS011;8017;50.812;4.934;2022-12-24T16:45:48;37.33;;;13.70;;
15833;SDS011;8017;50.812;4.934;2022-12-24T16:48:51;30.57;;;12.13;;
15833;SDS011;8017;50.812;4.934;2022-12-24T16:51:53;35.07;;;11.07;;
15833;SDS011;8017;50.812;4.934;2022-12-24T16:54:55;32.50;;;10.10;;
15833;SDS011;8017;50.812;4.934;2022-12-24T16:57:59;35.90;;;10.10;;
15833;SDS011;8017;50.812;4.934;2022-12-24T17:01:07;30.53;;;10.77;;
15833;SDS011;8017;50.812;4.934;2022-12-24T17:04:10;32.87;;;10.17;;
15833;SDS011;8017;50.812;4.934;2022-12-24T17:07:13;38.90;;;10.93;;
15833;SDS011;8017;50.812;4.934;2022-12-24T17:10:16;29.70;;;10.43;;
15833;SDS011;8017;50.812;4.934;2022-12-24T17:13:19;31.40;;;12.00;;
15833;SDS011;8017;50.812;4.934;2022-12-24T17:16:21;39.10;;;11.27;;
15833;SDS011;8017;50.812;4.934;2022-12-24T17:19:23;33.70;;;11.20;;
15833;SDS011;8017;50.812;4.934;2022-12-24T17:22:25;36.30;;;11.13;;
15833;SDS011;8017;50.812;4.934;2022-12-24T17:25:27;36.30;;;11.50;;
15833;SDS011;8017;50.812;4.934;2022-12-24T17:28:31;42.03;;;11.23;;
15833;SDS011;8017;50.812;4.934;2022-12-24T17:31:33;33.63;;;10.83;;
15833;SDS011;8017;50.812;4.934;2022-12-24T17:34:37;29.50;;;10.23;;
15833;SDS011;8017;50.812;4.934;2022-12-24T17:37:39;26.43;;;9.10;;
15833;SDS011;8017;50.812;4.934;2022-12-24T17:40:41;38.80;;;12.13;;
15833;SDS011;8017;50.812;4.934;2022-12-24T17:43:44;36.87;;;11.37;;
15833;SDS011;8017;50.812;4.934;2022-12-24T17:46:46;37.43;;;10.90;;
15833;SDS011;8017;50.812;4.934;2022-12-24T17:49:49;29.40;;;9.30;;
15833;SDS011;8017;50.812;4.934;2022-12-24T17:52:50;30.60;;;9.30;;
15833;SDS011;8017;50.812;4.934;2022-12-24T17:55:52;36.50;;;10.73;;
15833;SDS011;8017;50.812;4.934;2022-12-24T17:58:56;40.13;;;10.60;;
15833;SDS011;8017;50.812;4.934;2022-12-24T18:01:58;37.63;;;10.27;;
15833;SDS011;8017;50.812;4.934;2022-12-24T18:05:00;37.70;;;9.93;;
15833;SDS011;8017;50.812;4.934;2022-12-24T18:08:03;31.33;;;10.50;;
15833;SDS011;8017;50.812;4.934;2022-12-24T18:11:09;34.60;;;11.40;;
15833;SDS011;8017;50.812;4.934;2022-12-24T18:14:13;32.50;;;10.77;;
15833;SDS011;8017;50.812;4.934;2022-12-24T18:17:15;39.53;;;11.47;;
15833;SDS011;8017;50.812;4.934;2022-12-24T18:20:17;32.80;;;10.90;;
15833;SDS011;8017;50.812;4.934;2022-12-24T18:23:20;37.80;;;10.63;;
15833;SDS011;8017;50.812;4.934;2022-12-24T18:26:22;25.33;;;9.30;;
15833;SDS011;8017;50.812;4.934;2022-12-24T18:29:27;35.17;;;10.50;;
15833;SDS011;8017;50.812;4.934;2022-12-24T18:32:29;34.00;;;10.30;;
15833;SDS011;8017;50.812;4.934;2022-12-24T18:35:31;38.13;;;12.50;;
15833;SDS011;8017;50.812;4.934;2022-12-24T18:38:33;37.27;;;12.00;;
15833;SDS011;8017;50.812;4.934;2022-12-24T18:41:34;39.73;;;10.50;;
15833;SDS011;8017;50.812;4.934;2022-12-24T18:44:38;31.33;;;9.93;;